Coronel Enrique Soto Cano Air Base
MHSC : rendu visible

Aérodrome :











RETROUVEZ-NOUS SUR...

 
LOGIN :

S'inscrire | Disclaimer

   EN    FR    IT 

 









Légende :    VFR   VFR Marginal   IFR   IFR Intensif   IFR Très Intensif
Visi : 
Plafond : 
>= 8 km
>= 3000ft
5 à 8 km
1000 à 3000 ft
1500m à 5 km
500 à 1000 ft
800 à 1500m
200 à 500 ft
< 800m
< 200 ft
Symboles :   Orages  Brouillard  Fortes neiges  Fortes précipitations  Vent > 20 kt






- Altitude de l'aérodrome : 2061 ft
- Code IATA : XPL


MHSC - Coronel Enrique Soto Cano Air Base

DERNIER METAR :
  • 311723Z AUTO 18006KT 9999 CLR 23/23 A3000 RMK AO2 RAE23 SLP126 $

METARs EXPIRÉS :
  • 311658Z AUTO 19011KT 9999 -RA FEW033 SCT050 SCT060 23/23 A3000 RMK AO2 RAB12E25DZB25E30RAB30E32DZB32E36RAB36 SLP126 P0000 T02300230 $
  • 311612Z AUTO 20011KT 9999 -RA FEW040 FEW050 SCT065 BKN120 BKN150 BKN170 24/24 A2999 RMK AO2 RAB12 SLP121 $
  • 311558Z AUTO 20010KT 9999 FEW055 BKN120 BKN140 24/24 A2999 RMK AO2 RAB33E39 SLP121 P0000 T02440244 $
  • 311539Z AUTO 20009KT 9999 FEW075 BKN100 24/24 A2999 RMK AO2 RAB33E39 SLP121 $
  • 311533Z AUTO 20008KT 9999 -RA SCT075 SCT095 BKN110 25/25 A2999 RMK AO2 RAB33 SLP118 $
  • 311458Z AUTO 19007KT 9999 SCT046 BKN060 BKN190 25/25 A2999 RMK AO2 SLP118 T02450245 52015 $

Prévision TAF périmée.
FIR MHTG / Amérique du Nord



MET'MAP, la Météo Aéronautique d'un coup d'oeil ! - Copyright ORBIFLY Décembre 2007 - Disclaimer

ORBIFLY MET'MAP TEAM :

Programmation & Développement : Alexandra Zaïnal
Sur une idée originale de : Baudouin d'Aumeries
Assistance à la programmation : Marc-Olivier Méhu
Soutien technique & logistique : Manuel Goepfert

Contact : metmap@orbifly.com




SOURCES & CREDITS :

   NOAA       Earth
Advisory